Time;durP1;ratioP1;P1;durP2;ratioP2;P2;SDS_P1;SDS_P2;PMS_P1;PMS_P2;Temp;Humidity;BMP_temperature;BMP_pressure;BME280_temperature;BME280_humidity;BME280_pressure;Samples;Min_cycle;Max_cycle;Signal;HPM_P1;HPM_P2
2021/04/22 00:00:24;;;;;;;29.38;20.38;;;;;;;;;;5157411;27;20465;-61
2021/04/22 00:02:50;;;;;;;30.08;19.15;;;;;;;;;;5156936;27;20438;-61
2021/04/22 00:05:21;;;;;;;30.95;18.85;;;;;;;;;;5138133;27;20043;-61
2021/04/22 00:07:47;;;;;;;25.10;17.83;;;;;;;;;;5157244;27;20046;-61
2021/04/22 00:10:15;;;;;;;27.20;18.23;;;;;;;;;;5157058;27;20045;-61
2021/04/22 00:12:41;;;;;;;28.83;17.60;;;;;;;;;;5156917;27;20055;-61
2021/04/22 00:15:19;;;;;;;25.98;16.92;;;;;;;;;;5156895;27;20490;-61
2021/04/22 00:17:45;;;;;;;28.63;16.77;;;;;;;;;;5156973;27;20018;-61
2021/04/22 00:20:11;;;;;;;19.52;12.77;;;;;;;;;;5156877;27;20102;-61
2021/04/22 00:22:37;;;;;;;26.75;16.83;;;;;;;;;;5156375;27;20114;-61
2021/04/22 00:25:03;;;;;;;29.38;19.70;;;;;;;;;;5138341;27;20038;-61
2021/04/22 00:27:30;;;;;;;26.42;17.17;;;;;;;;;;5156761;27;20022;-64
2021/04/22 00:29:58;;;;;;;28.58;18.52;;;;;;;;;;5156623;27;20490;-64
2021/04/22 00:32:32;;;;;;;25.95;15.68;;;;;;;;;;5138286;27;20031;-64
2021/04/22 00:35:07;;;;;;;25.15;16.52;;;;;;;;;;5156648;27;20026;-64
2021/04/22 00:37:33;;;;;;;23.63;16.00;;;;;;;;;;5138144;27;20034;-64
2021/04/22 00:40:19;;;;;;;19.90;13.15;;;;;;;;;;5138026;27;20014;-65
2021/04/22 00:42:44;;;;;;;21.63;13.77;;;;;;;;;;5137570;27;20091;-64
2021/04/22 00:45:10;;;;;;;26.92;16.58;;;;;;;;;;5155993;27;20501;-64
2021/04/22 00:47:46;;;;;;;24.67;16.17;;;;;;;;;;5156194;27;20031;-64
2021/04/22 00:50:21;;;;;;;27.13;17.83;;;;;;;;;;5121217;27;20031;-64
2021/04/22 00:53:08;;;;;;;30.65;18.52;;;;;;;;;;5156103;27;20127;-65
2021/04/22 00:56:03;;;;;;;31.25;18.58;;;;;;;;;;5120795;27;20023;-65
2021/04/22 00:58:59;;;;;;;28.30;18.38;;;;;;;;;;5121495;27;20023;-67
2021/04/22 01:01:46;;;;;;;30.30;20.60;;;;;;;;;;5138258;27;20027;-67
2021/04/22 01:04:55;;;;;;;35.08;20.05;;;;;;;;;;5111103;28;20081;-68
2021/04/22 01:08:11;;;;;;;29.95;20.30;;;;;;;;;;5117014;27;20036;-67
2021/04/22 01:11:18;;;;;;;31.75;19.77;;;;;;;;;;5115842;27;20039;-67
2021/04/22 01:14:09;;;;;;;31.33;19.42;;;;;;;;;;5096890;28;20034;-67
2021/04/22 01:17:02;;;;;;;27.88;18.45;;;;;;;;;;5113680;27;20036;-68
2021/04/22 01:19:36;;;;;;;28.52;19.77;;;;;;;;;;5097513;28;20031;-67
2021/04/22 01:22:03;;;;;;;27.77;17.48;;;;;;;;;;5113036;28;20028;-67
2021/04/22 01:24:33;;;;;;;29.65;18.55;;;;;;;;;;5114562;28;20015;-67
2021/04/22 01:27:05;;;;;;;26.98;18.05;;;;;;;;;;5114519;28;20038;-65
2021/04/22 01:29:31;;;;;;;30.65;18.05;;;;;;;;;;5130108;27;20055;-64
2021/04/22 01:31:57;;;;;;;32.53;20.17;;;;;;;;;;5112950;28;20421;-63
2021/04/22 01:34:22;;;;;;;24.95;18.15;;;;;;;;;;5114074;28;20026;-63
2021/04/22 01:36:48;;;;;;;26.52;18.60;;;;;;;;;;5114194;28;20019;-63
2021/04/22 01:39:14;;;;;;;28.55;18.77;;;;;;;;;;5114258;28;20073;-62
2021/04/22 01:41:40;;;;;;;31.33;18.88;;;;;;;;;;5114403;28;20012;-63
2021/04/22 01:44:06;;;;;;;27.35;17.83;;;;;;;;;;5114163;28;20538;-64
2021/04/22 01:46:32;;;;;;;26.10;16.88;;;;;;;;;;5114088;28;20020;-64
2021/04/22 01:48:57;;;;;;;30.52;18.40;;;;;;;;;;5114213;28;20085;-63
2021/04/22 01:51:23;;;;;;;27.30;17.13;;;;;;;;;;5129984;27;20023;-63
2021/04/22 01:53:49;;;;;;;26.73;17.58;;;;;;;;;;5113803;28;20019;-63
2021/04/22 01:56:15;;;;;;;26.65;16.98;;;;;;;;;;5113882;28;20471;-63
2021/04/22 01:58:41;;;;;;;26.50;17.98;;;;;;;;;;5113824;28;20031;-63
2021/04/22 02:01:07;;;;;;;25.10;17.42;;;;;;;;;;5113894;28;20019;-63
2021/04/22 02:03:33;;;;;;;26.13;18.35;;;;;;;;;;5132807;27;20042;-64
2021/04/22 02:06:02;;;;;;;24.38;17.35;;;;;;;;;;5134653;27;20042;-64
2021/04/22 02:08:27;;;;;;;27.73;18.25;;;;;;;;;;5134012;27;20031;-64
2021/04/22 02:10:53;;;;;;;30.20;18.55;;;;;;;;;;5134376;27;20030;-64
2021/04/22 02:13:20;;;;;;;26.83;17.52;;;;;;;;;;5134132;28;20127;-65
2021/04/22 02:15:48;;;;;;;25.35;17.52;;;;;;;;;;5134176;27;20015;-64
2021/04/22 02:18:14;;;;;;;26.48;17.77;;;;;;;;;;5134091;27;20459;-64
2021/04/22 02:20:39;;;;;;;28.40;19.13;;;;;;;;;;5134436;27;20092;-63
2021/04/22 02:23:06;;;;;;;24.42;18.38;;;;;;;;;;5134276;27;20059;-63
2021/04/22 02:25:31;;;;;;;27.83;18.20;;;;;;;;;;5134127;27;20023;-64
2021/04/22 02:27:58;;;;;;;28.13;18.52;;;;;;;;;;5135461;27;20475;-65
2021/04/22 02:30:26;;;;;;;28.20;18.20;;;;;;;;;;5138379;27;20046;-64
2021/04/22 02:32:53;;;;;;;28.65;19.02;;;;;;;;;;5137059;27;20034;-63
2021/04/22 02:35:19;;;;;;;26.02;19.17;;;;;;;;;;5137227;27;20412;-64
2021/04/22 02:37:45;;;;;;;30.25;20.75;;;;;;;;;;5138347;27;20027;-65
2021/04/22 02:40:12;;;;;;;27.52;19.38;;;;;;;;;;5138328;27;20358;-65
2021/04/22 02:42:38;;;;;;;30.65;19.45;;;;;;;;;;5138030;27;20023;-64
2021/04/22 02:45:07;;;;;;;29.52;19.25;;;;;;;;;;5138068;27;20072;-64
2021/04/22 02:47:32;;;;;;;29.90;18.77;;;;;;;;;;5136870;27;20035;-63
2021/04/22 02:49:58;;;;;;;29.88;19.20;;;;;;;;;;5136667;27;20068;-64
2021/04/22 02:52:23;;;;;;;32.20;20.80;;;;;;;;;;5138178;27;20114;-62
2021/04/22 02:54:49;;;;;;;31.40;20.02;;;;;;;;;;5137967;27;20373;-61
2021/04/22 02:57:14;;;;;;;28.63;21.00;;;;;;;;;;5138023;27;20153;-61
2021/04/22 02:59:40;;;;;;;30.13;19.85;;;;;;;;;;5137975;27;20094;-61
2021/04/22 03:02:05;;;;;;;29.33;19.58;;;;;;;;;;5137864;27;20111;-62
2021/04/22 03:04:30;;;;;;;24.88;17.42;;;;;;;;;;5150838;27;20054;-62
2021/04/22 03:06:56;;;;;;;25.63;16.63;;;;;;;;;;5158352;27;20038;-62
2021/04/22 03:09:21;;;;;;;23.45;16.52;;;;;;;;;;5139737;27;20502;-62
2021/04/22 03:11:47;;;;;;;23.77;15.93;;;;;;;;;;5158203;27;20397;-62
2021/04/22 03:14:12;;;;;;;24.15;16.00;;;;;;;;;;5139456;27;20398;-62
2021/04/22 03:16:39;;;;;;;21.48;15.57;;;;;;;;;;5158067;27;20381;-63
2021/04/22 03:19:04;;;;;;;21.88;15.75;;;;;;;;;;5139523;27;20097;-63
2021/04/22 03:21:30;;;;;;;24.85;17.35;;;;;;;;;;5158145;27;20062;-65
2021/04/22 03:23:55;;;;;;;22.95;16.75;;;;;;;;;;5158029;27;20022;-64
2021/04/22 03:26:21;;;;;;;24.23;17.35;;;;;;;;;;5158119;27;20022;-64
2021/04/22 03:28:47;;;;;;;24.42;15.93;;;;;;;;;;5158073;27;20018;-64
2021/04/22 03:31:13;;;;;;;21.27;16.55;;;;;;;;;;5157856;27;20037;-64
2021/04/22 03:33:39;;;;;;;24.52;16.17;;;;;;;;;;5157789;27;20105;-64
2021/04/22 03:36:04;;;;;;;24.63;16.95;;;;;;;;;;5157786;27;20489;-64
2021/04/22 03:38:30;;;;;;;24.25;16.75;;;;;;;;;;5157592;27;20018;-62
2021/04/22 03:40:55;;;;;;;26.42;17.95;;;;;;;;;;5156749;27;20415;-62
2021/04/22 03:43:21;;;;;;;28.98;18.70;;;;;;;;;;5157582;27;20109;-62
2021/04/22 03:45:46;;;;;;;29.00;19.08;;;;;;;;;;5157587;27;20033;-62
2021/04/22 03:48:12;;;;;;;25.73;18.80;;;;;;;;;;5157651;27;20029;-62
2021/04/22 03:50:38;;;;;;;27.55;21.23;;;;;;;;;;5157517;27;20027;-61
2021/04/22 03:53:04;;;;;;;25.67;17.48;;;;;;;;;;5157359;27;20025;-61
2021/04/22 03:55:29;;;;;;;24.75;17.55;;;;;;;;;;5157354;27;20109;-61
2021/04/22 03:57:55;;;;;;;21.63;16.75;;;;;;;;;;5121774;27;20355;-61
2021/04/22 04:00:21;;;;;;;26.65;17.95;;;;;;;;;;5157286;27;20477;-61
2021/04/22 04:02:47;;;;;;;25.70;18.90;;;;;;;;;;5157483;27;20057;-61
2021/04/22 04:05:13;;;;;;;24.35;18.35;;;;;;;;;;5157094;27;20378;-62
2021/04/22 04:07:38;;;;;;;24.35;17.30;;;;;;;;;;5138573;27;20080;-61
2021/04/22 04:10:05;;;;;;;24.70;17.67;;;;;;;;;;5157002;27;20454;-60
2021/04/22 04:12:30;;;;;;;24.75;17.85;;;;;;;;;;5157007;27;20023;-61
2021/04/22 04:14:56;;;;;;;25.60;19.08;;;;;;;;;;5156917;27;20076;-61
2021/04/22 04:17:22;;;;;;;23.50;18.10;;;;;;;;;;5157080;27;20462;-61
2021/04/22 04:19:47;;;;;;;27.85;19.55;;;;;;;;;;5157032;27;20083;-61
2021/04/22 04:22:14;;;;;;;35.53;25.50;;;;;;;;;;5156184;27;20122;-61
2021/04/22 04:24:41;;;;;;;31.67;21.90;;;;;;;;;;5156476;27;20027;-61
2021/04/22 04:27:07;;;;;;;28.95;21.65;;;;;;;;;;5156381;27;20042;-61
2021/04/22 04:29:33;;;;;;;29.50;21.10;;;;;;;;;;5156231;27;20062;-61
2021/04/22 04:31:58;;;;;;;25.52;18.23;;;;;;;;;;5156385;27;20447;-61
2021/04/22 04:34:24;;;;;;;25.27;17.73;;;;;;;;;;5155445;27;20031;-61
2021/04/22 04:36:49;;;;;;;26.85;17.63;;;;;;;;;;5155382;27;20109;-61
2021/04/22 04:39:15;;;;;;;32.13;20.20;;;;;;;;;;5156655;27;20018;-61
2021/04/22 04:41:41;;;;;;;34.92;22.98;;;;;;;;;;5156572;27;20010;-61
2021/04/22 04:44:06;;;;;;;30.38;19.98;;;;;;;;;;5156443;27;20039;-61
2021/04/22 04:46:32;;;;;;;31.10;18.58;;;;;;;;;;5156400;27;20014;-61
2021/04/22 04:48:57;;;;;;;25.90;17.58;;;;;;;;;;5156243;27;20023;-61
2021/04/22 04:51:23;;;;;;;23.15;17.73;;;;;;;;;;5156025;27;20046;-61
2021/04/22 04:53:48;;;;;;;36.88;23.70;;;;;;;;;;5156398;27;20370;-61
2021/04/22 04:56:17;;;;;;;31.75;20.30;;;;;;;;;;5156243;27;20098;-61
2021/04/22 04:58:43;;;;;;;31.13;20.63;;;;;;;;;;5156144;27;20403;-61
2021/04/22 05:01:10;;;;;;;29.23;19.70;;;;;;;;;;5155056;27;20021;-60
2021/04/22 05:03:36;;;;;;;37.55;23.17;;;;;;;;;;5155300;27;20035;-61
2021/04/22 05:06:02;;;;;;;38.65;23.38;;;;;;;;;;5155986;27;20050;-61
2021/04/22 05:08:28;;;;;;;33.58;22.27;;;;;;;;;;5155678;27;20079;-61
2021/04/22 05:10:53;;;;;;;29.15;19.90;;;;;;;;;;5155558;27;20063;-61
2021/04/22 05:13:19;;;;;;;28.80;19.70;;;;;;;;;;5155511;27;20042;-61
2021/04/22 05:15:44;;;;;;;30.02;19.25;;;;;;;;;;5155623;27;20021;-60
2021/04/22 05:18:10;;;;;;;29.42;20.13;;;;;;;;;;5155386;27;20019;-61
2021/04/22 05:20:35;;;;;;;30.48;20.63;;;;;;;;;;5155798;27;20090;-61
2021/04/22 05:23:01;;;;;;;26.40;18.73;;;;;;;;;;5155090;27;20095;-61
2021/04/22 05:25:26;;;;;;;27.85;20.30;;;;;;;;;;5137192;27;20527;-61
2021/04/22 05:27:52;;;;;;;29.73;19.65;;;;;;;;;;5155605;27;20026;-61
2021/04/22 05:30:17;;;;;;;28.75;19.55;;;;;;;;;;5155634;27;20014;-61
2021/04/22 05:32:43;;;;;;;29.02;19.85;;;;;;;;;;5155527;27;20027;-61
2021/04/22 05:35:12;;;;;;;26.70;18.75;;;;;;;;;;5155191;27;20366;-61
2021/04/22 05:37:37;;;;;;;27.58;19.13;;;;;;;;;;5155465;27;20095;-61
2021/04/22 05:40:03;;;;;;;23.55;16.25;;;;;;;;;;5155346;27;20015;-63
2021/04/22 05:42:29;;;;;;;23.42;15.05;;;;;;;;;;5155064;27;20018;-63
2021/04/22 05:44:54;;;;;;;24.27;16.10;;;;;;;;;;5155549;27;20079;-63
2021/04/22 05:47:20;;;;;;;20.63;14.82;;;;;;;;;;5155061;27;20027;-63
2021/04/22 05:49:45;;;;;;;19.13;13.25;;;;;;;;;;5155522;27;20026;-63
2021/04/22 05:52:11;;;;;;;17.70;11.32;;;;;;;;;;5155288;27;20509;-63
2021/04/22 05:54:36;;;;;;;17.08;12.35;;;;;;;;;;5155165;27;20518;-63
2021/04/22 05:57:03;;;;;;;18.92;14.02;;;;;;;;;;5154793;27;20075;-63
2021/04/22 05:59:29;;;;;;;16.95;11.02;;;;;;;;;;5119428;27;20059;-63
2021/04/22 06:01:54;;;;;;;19.38;13.80;;;;;;;;;;5154830;27;20363;-63
2021/04/22 06:04:20;;;;;;;18.00;11.88;;;;;;;;;;5103407;28;20173;-63
2021/04/22 06:06:46;;;;;;;19.08;11.63;;;;;;;;;;5113788;28;20020;-63
2021/04/22 06:09:11;;;;;;;15.20;10.27;;;;;;;;;;5113486;28;20485;-63
2021/04/22 06:11:37;;;;;;;19.08;12.13;;;;;;;;;;5113698;28;20119;-63
2021/04/22 06:14:03;;;;;;;19.67;11.65;;;;;;;;;;5113712;28;20023;-62
2021/04/22 06:16:28;;;;;;;17.17;12.85;;;;;;;;;;5113686;28;20031;-63
2021/04/22 06:18:54;;;;;;;15.63;11.77;;;;;;;;;;5112423;28;20577;-63
2021/04/22 06:21:20;;;;;;;16.17;11.68;;;;;;;;;;5112411;28;20030;-63
2021/04/22 06:23:45;;;;;;;17.27;13.35;;;;;;;;;;5113651;28;20016;-63
2021/04/22 06:26:11;;;;;;;18.75;13.77;;;;;;;;;;5112332;28;20039;-63
2021/04/22 06:28:36;;;;;;;20.23;14.63;;;;;;;;;;5113761;28;20024;-63
2021/04/22 06:31:02;;;;;;;20.13;14.43;;;;;;;;;;5113843;28;20114;-63
2021/04/22 06:33:27;;;;;;;21.30;15.48;;;;;;;;;;5113580;28;20088;-62
2021/04/22 06:35:53;;;;;;;23.25;16.33;;;;;;;;;;5112360;28;20039;-63
2021/04/22 06:38:19;;;;;;;21.58;15.30;;;;;;;;;;5113492;28;20042;-62
2021/04/22 06:40:44;;;;;;;20.88;14.77;;;;;;;;;;5113098;28;20038;-63
2021/04/22 06:43:12;;;;;;;20.38;13.55;;;;;;;;;;5113458;28;20554;-63
2021/04/22 06:45:39;;;;;;;17.90;12.75;;;;;;;;;;5111999;28;20038;-63
2021/04/22 06:48:06;;;;;;;19.73;13.40;;;;;;;;;;5112914;28;20546;-63
2021/04/22 06:50:31;;;;;;;22.83;12.95;;;;;;;;;;5112373;28;20487;-63
2021/04/22 06:52:56;;;;;;;19.50;13.97;;;;;;;;;;5111012;28;20035;-63
2021/04/22 06:55:23;;;;;;;19.77;12.85;;;;;;;;;;5111627;28;20027;-63
2021/04/22 06:57:48;;;;;;;17.48;13.48;;;;;;;;;;5111712;28;20019;-63
2021/04/22 07:00:15;;;;;;;19.35;12.93;;;;;;;;;;5112328;28;20023;-63
2021/04/22 07:02:41;;;;;;;20.02;13.00;;;;;;;;;;5111229;28;20378;-63
2021/04/22 07:05:07;;;;;;;23.45;13.02;;;;;;;;;;5149173;27;20057;-63
2021/04/22 07:07:33;;;;;;;18.38;12.55;;;;;;;;;;5153936;27;20114;-63
2021/04/22 07:09:59;;;;;;;19.15;13.45;;;;;;;;;;5153953;27;20051;-63
2021/04/22 07:12:25;;;;;;;18.33;10.75;;;;;;;;;;5153854;27;20022;-63
2021/04/22 07:14:50;;;;;;;13.23;10.70;;;;;;;;;;5156518;27;20390;-63
2021/04/22 07:17:17;;;;;;;10.25;7.45;;;;;;;;;;5157685;27;20015;-63
2021/04/22 07:19:42;;;;;;;12.07;8.68;;;;;;;;;;5157604;27;20113;-63
2021/04/22 07:22:08;;;;;;;10.52;8.05;;;;;;;;;;5157496;27;20418;-63
2021/04/22 07:24:33;;;;;;;14.35;10.70;;;;;;;;;;5157432;27;20027;-63
2021/04/22 07:26:59;;;;;;;39.10;21.80;;;;;;;;;;5157456;27;20015;-63
2021/04/22 07:29:24;;;;;;;12.50;9.80;;;;;;;;;;5157408;27;20366;-63
2021/04/22 07:31:50;;;;;;;6.35;5.75;;;;;;;;;;5138707;27;20434;-63
2021/04/22 07:34:15;;;;;;;8.10;7.30;;;;;;;;;;5156674;27;20090;-63
2021/04/22 07:36:41;;;;;;;6.10;5.50;;;;;;;;;;5138813;27;20019;-63
2021/04/22 07:39:06;;;;;;;75.80;32.25;;;;;;;;;;5157203;27;20494;-63
2021/04/22 07:41:32;;;;;;;350.00;163.20;;;;;;;;;;5138570;27;20014;-63
2021/04/22 07:43:57;;;;;;;59.83;28.13;;;;;;;;;;5157109;27;20031;-63
2021/04/22 07:46:22;;;;;;;601.17;254.82;;;;;;;;;;5157065;27;20045;-63
2021/04/22 07:48:48;;;;;;;33.38;17.48;;;;;;;;;;5138544;27;20072;-63
2021/04/22 07:51:13;;;;;;;9.27;6.10;;;;;;;;;;5157003;27;20522;-63
2021/04/22 07:53:39;;;;;;;19.48;8.98;;;;;;;;;;5156803;27;20114;-63
2021/04/22 07:56:05;;;;;;;6.78;4.80;;;;;;;;;;5156919;27;20079;-63
2021/04/22 07:58:32;;;;;;;10.13;5.00;;;;;;;;;;5156867;27;20062;-64
2021/04/22 08:00:58;;;;;;;75.70;23.40;;;;;;;;;;5156951;27;20019;-64
2021/04/22 08:03:24;;;;;;;9.07;6.35;;;;;;;;;;5156328;27;20035;-65
2021/04/22 08:05:55;;;;;;;901.88;304.27;;;;;;;;;;5138520;27;20121;-63
2021/04/22 08:08:21;;;;;;;204.65;57.22;;;;;;;;;;5156661;27;20067;-63
2021/04/22 08:10:48;;;;;;;263.10;69.38;;;;;;;;;;5156586;27;20023;-64
2021/04/22 08:13:15;;;;;;;79.65;23.80;;;;;;;;;;5156560;27;21901;-64
2021/04/22 08:15:42;;;;;;;11.95;6.43;;;;;;;;;;5153093;27;20018;-64
2021/04/22 08:18:07;;;;;;;7.28;4.60;;;;;;;;;;5137904;27;20026;-64
2021/04/22 08:20:34;;;;;;;4.20;3.83;;;;;;;;;;5156464;27;20147;-64
2021/04/22 08:23:02;;;;;;;4.53;3.70;;;;;;;;;;5156310;27;20121;-64
2021/04/22 08:25:33;;;;;;;3.58;3.28;;;;;;;;;;5155825;27;20011;-64
2021/04/22 08:27:59;;;;;;;6.72;4.05;;;;;;;;;;5156337;27;20019;-64
2021/04/22 08:30:26;;;;;;;16.50;6.13;;;;;;;;;;5155595;27;20148;-64
2021/04/22 08:32:52;;;;;;;22.42;7.97;;;;;;;;;;5156243;27;20058;-64
2021/04/22 08:35:17;;;;;;;111.13;30.40;;;;;;;;;;5156011;27;20106;-64
2021/04/22 08:37:45;;;;;;;57.67;17.63;;;;;;;;;;5156149;27;20018;-64
2021/04/22 08:40:11;;;;;;;34.97;10.43;;;;;;;;;;5156001;27;20010;-64
2021/04/22 08:42:37;;;;;;;27.55;9.00;;;;;;;;;;5155822;27;20075;-63
2021/04/22 08:45:04;;;;;;;5.60;3.70;;;;;;;;;;5155968;27;20027;-64
2021/04/22 08:47:30;;;;;;;8.98;4.75;;;;;;;;;;5155906;27;20023;-64
2021/04/22 08:49:55;;;;;;;4.78;3.33;;;;;;;;;;5155863;27;20382;-64
2021/04/22 08:52:23;;;;;;;5.13;3.72;;;;;;;;;;5155854;27;20114;-64
2021/04/22 08:54:49;;;;;;;6.85;3.72;;;;;;;;;;5155656;27;20481;-64
2021/04/22 08:57:16;;;;;;;7.80;4.20;;;;;;;;;;5155763;27;20034;-64
2021/04/22 08:59:43;;;;;;;5.28;3.90;;;;;;;;;;5155688;27;20063;-64
2021/04/22 09:02:08;;;;;;;4.88;3.72;;;;;;;;;;5137103;27;20022;-64
2021/04/22 09:04:35;;;;;;;5.28;3.67;;;;;;;;;;5155248;27;20038;-64
2021/04/22 09:07:01;;;;;;;4.03;3.22;;;;;;;;;;5136975;27;20035;-64
2021/04/22 09:09:26;;;;;;;5.38;3.30;;;;;;;;;;5155479;27;20508;-64
2021/04/22 09:11:51;;;;;;;5.85;3.03;;;;;;;;;;5155421;27;20031;-64
2021/04/22 09:14:19;;;;;;;5.10;3.30;;;;;;;;;;5136693;27;20096;-64
2021/04/22 09:16:47;;;;;;;7.05;4.00;;;;;;;;;;5155317;27;20038;-64
2021/04/22 09:19:14;;;;;;;5.50;3.20;;;;;;;;;;5155326;27;20011;-64
2021/04/22 09:21:42;;;;;;;5.00;2.85;;;;;;;;;;5155144;27;20034;-63
2021/04/22 09:24:15;;;;;;;7.45;3.25;;;;;;;;;;5155127;27;20018;-63
2021/04/22 09:26:40;;;;;;;5.75;3.22;;;;;;;;;;5154821;27;20054;-62
2021/04/22 09:29:07;;;;;;;6.63;3.42;;;;;;;;;;5155196;27;20022;-63
2021/04/22 09:31:33;;;;;;;3.20;2.55;;;;;;;;;;5155032;27;20489;-63
2021/04/22 09:34:07;;;;;;;72.35;35.33;;;;;;;;;;5155070;27;20110;-63
2021/04/22 09:36:46;;;;;;;12.70;8.55;;;;;;;;;;5154880;27;20027;-64
2021/04/22 09:39:12;;;;;;;4.75;2.90;;;;;;;;;;5154557;27;20478;-63
2021/04/22 09:41:37;;;;;;;6.28;3.42;;;;;;;;;;5154882;27;20018;-63
2021/04/22 09:44:08;;;;;;;4.63;3.75;;;;;;;;;;5154894;27;20026;-63
2021/04/22 09:46:41;;;;;;;6.80;4.03;;;;;;;;;;5154978;27;20033;-63
2021/04/22 09:49:09;;;;;;;6.55;3.67;;;;;;;;;;5154786;27;20057;-63
2021/04/22 09:51:35;;;;;;;6.07;4.00;;;;;;;;;;5154817;27;20363;-63
2021/04/22 09:54:10;;;;;;;7.07;4.30;;;;;;;;;;5154663;27;20114;-64
2021/04/22 09:56:45;;;;;;;5.82;4.32;;;;;;;;;;5136175;27;20027;-64
2021/04/22 09:59:11;;;;;;;5.72;4.05;;;;;;;;;;5119080;27;20023;-64
2021/04/22 10:01:37;;;;;;;7.43;3.78;;;;;;;;;;5154678;27;20019;-63
2021/04/22 10:04:03;;;;;;;7.10;3.95;;;;;;;;;;5154090;27;20130;-64
2021/04/22 10:06:41;;;;;;;4.22;3.25;;;;;;;;;;5154494;27;20121;-63
2021/04/22 10:09:07;;;;;;;3.63;2.83;;;;;;;;;;5154679;27;20026;-63
2021/04/22 10:11:43;;;;;;;5.68;3.75;;;;;;;;;;5154595;27;20023;-63
2021/04/22 10:14:08;;;;;;;3.65;3.30;;;;;;;;;;5154451;27;20019;-63
2021/04/22 10:16:34;;;;;;;3.97;2.95;;;;;;;;;;5154466;27;20087;-63
2021/04/22 10:19:00;;;;;;;6.43;3.25;;;;;;;;;;5154413;27;20469;-64
2021/04/22 10:21:28;;;;;;;4.57;2.70;;;;;;;;;;5154451;27;20067;-63
2021/04/22 10:24:05;;;;;;;6.13;3.72;;;;;;;;;;5154536;27;20111;-63
2021/04/22 10:26:31;;;;;;;4.55;2.80;;;;;;;;;;5154420;27;20031;-63
2021/04/22 10:28:56;;;;;;;3.30;2.83;;;;;;;;;;5154437;27;20015;-63
2021/04/22 10:31:25;;;;;;;1.98;1.88;;;;;;;;;;5154249;27;20037;-63
2021/04/22 10:33:52;;;;;;;4.90;2.78;;;;;;;;;;5154186;27;20023;-63
2021/04/22 10:36:19;;;;;;;5.30;2.65;;;;;;;;;;5154306;27;20578;-63
2021/04/22 10:38:44;;;;;;;5.80;2.78;;;;;;;;;;5154343;27;20039;-63
2021/04/22 10:41:11;;;;;;;3.55;2.05;;;;;;;;;;5154233;27;20119;-64
2021/04/22 10:43:37;;;;;;;4.53;2.10;;;;;;;;;;5154156;27;20371;-63
2021/04/22 10:46:03;;;;;;;3.20;2.20;;;;;;;;;;5154174;27;20034;-63
2021/04/22 10:48:28;;;;;;;2.92;1.92;;;;;;;;;;5154588;27;20018;-63
2021/04/22 10:50:54;;;;;;;3.95;2.30;;;;;;;;;;5158153;27;20120;-66
2021/04/22 10:53:21;;;;;;;2.28;2.00;;;;;;;;;;5139645;27;20095;-63
2021/04/22 10:55:48;;;;;;;4.28;1.90;;;;;;;;;;5158106;27;20033;-67
2021/04/22 10:58:17;;;;;;;2.10;1.70;;;;;;;;;;5139477;27;20105;-65
2021/04/22 11:00:51;;;;;;;3.25;1.80;;;;;;;;;;5157924;27;20018;-66
2021/04/22 11:03:23;;;;;;;3.72;1.75;;;;;;;;;;5157487;27;20035;-65
2021/04/22 11:05:52;;;;;;;2.70;2.15;;;;;;;;;;5158020;27;20075;-56
2021/04/22 11:08:29;;;;;;;5.85;2.92;;;;;;;;;;5157841;27;20034;-68
2021/04/22 11:10:56;;;;;;;5.15;2.17;;;;;;;;;;5158334;27;20019;-68
2021/04/22 11:13:31;;;;;;;4.40;2.50;;;;;;;;;;5157915;27;20023;-69
2021/04/22 11:15:57;;;;;;;4.78;2.00;;;;;;;;;;5158248;27;20049;-70
2021/04/22 11:18:34;;;;;;;5.22;2.13;;;;;;;;;;5139631;27;20018;-68
2021/04/22 11:21:00;;;;;;;4.75;2.50;;;;;;;;;;5158218;27;20022;-64
2021/04/22 11:23:27;;;;;;;4.57;2.60;;;;;;;;;;5122412;27;20019;-70
2021/04/22 11:38:50;;;;;;;5.57;2.47;;;;;;;;;;5156190;27;887645;-67
2021/04/22 11:41:16;;;;;;;2.88;2.13;;;;;;;;;;5129771;28;20124;-69
2021/04/22 11:43:41;;;;;;;5.57;2.10;;;;;;;;;;5131678;27;20031;-70
2021/04/22 11:46:08;;;;;;;9.70;2.38;;;;;;;;;;5132054;28;20028;-70
2021/04/22 11:48:39;;;;;;;6.50;2.60;;;;;;;;;;5131871;27;20023;-69
2021/04/22 11:51:05;;;;;;;4.63;2.10;;;;;;;;;;5130279;28;20421;-69
2021/04/22 11:53:35;;;;;;;3.70;2.28;;;;;;;;;;5131644;27;20054;-69
2021/04/22 11:56:01;;;;;;;2.83;1.83;;;;;;;;;;5131842;27;20020;-69
2021/04/22 11:58:27;;;;;;;2.97;1.58;;;;;;;;;;5130172;28;20027;-70
2021/04/22 12:00:56;;;;;;;4.63;2.42;;;;;;;;;;5130227;28;20035;-70
2021/04/22 12:03:24;;;;;;;3.15;1.70;;;;;;;;;;5131683;28;20451;-69
2021/04/22 12:05:50;;;;;;;5.03;2.22;;;;;;;;;;5130090;28;20011;-70
2021/04/22 12:08:17;;;;;;;6.85;1.83;;;;;;;;;;5131194;27;20027;-69
2021/04/22 12:10:48;;;;;;;4.00;2.25;;;;;;;;;;5131452;27;20062;-69
2021/04/22 12:13:17;;;;;;;2.03;1.60;;;;;;;;;;5129997;28;20031;-69
2021/04/22 12:15:45;;;;;;;6.80;3.35;;;;;;;;;;5131087;27;20034;-67
2021/04/22 12:18:19;;;;;;;7.75;3.55;;;;;;;;;;5131144;28;20031;-67
2021/04/22 12:20:45;;;;;;;4.75;2.30;;;;;;;;;;5130998;28;20465;-67
2021/04/22 12:23:10;;;;;;;4.97;2.47;;;;;;;;;;5130928;27;20033;-61
2021/04/22 12:25:36;;;;;;;2.92;2.05;;;;;;;;;;5129683;28;20058;-66
2021/04/22 12:28:05;;;;;;;5.53;2.50;;;;;;;;;;5131128;28;20027;-64
2021/04/22 12:30:45;;;;;;;3.70;1.55;;;;;;;;;;5129545;28;20506;-64
2021/04/22 12:33:19;;;;;;;4.05;1.90;;;;;;;;;;5130805;27;20465;-63
2021/04/22 12:35:46;;;;;;;6.15;2.25;;;;;;;;;;5130780;28;20031;-63
2021/04/22 12:38:15;;;;;;;4.60;2.00;;;;;;;;;;5129953;27;20031;-63
2021/04/22 12:40:41;;;;;;;3.55;1.85;;;;;;;;;;5129589;28;20492;-64
2021/04/22 12:43:07;;;;;;;5.30;2.58;;;;;;;;;;5129882;28;20054;-63
2021/04/22 12:45:37;;;;;;;4.40;1.88;;;;;;;;;;5130243;28;20020;-63
2021/04/22 12:48:03;;;;;;;4.38;2.28;;;;;;;;;;5127763;28;20038;-63
2021/04/22 12:50:39;;;;;;;6.30;3.20;;;;;;;;;;5112925;28;20012;-63
2021/04/22 12:53:07;;;;;;;5.13;2.35;;;;;;;;;;5114486;28;20488;-63
2021/04/22 12:55:34;;;;;;;4.40;2.80;;;;;;;;;;5114155;28;20054;-63
2021/04/22 12:58:00;;;;;;;3.80;1.92;;;;;;;;;;5115082;28;20028;-63
2021/04/22 13:00:27;;;;;;;4.90;2.35;;;;;;;;;;5114061;28;20107;-63
2021/04/22 13:02:53;;;;;;;3.80;2.28;;;;;;;;;;5115462;28;20024;-63
2021/04/22 13:05:20;;;;;;;1.73;0.93;;;;;;;;;;5115621;28;20023;-63
2021/04/22 13:07:45;;;;;;;5.32;1.67;;;;;;;;;;5115835;28;20419;-63
2021/04/22 13:10:15;;;;;;;4.38;1.75;;;;;;;;;;5115868;28;20029;-63
2021/04/22 13:12:41;;;;;;;5.22;3.28;;;;;;;;;;5115756;28;20020;-63
2021/04/22 13:15:09;;;;;;;5.72;2.60;;;;;;;;;;5115903;28;20048;-64
2021/04/22 13:17:35;;;;;;;6.90;2.63;;;;;;;;;;5115703;28;20032;-62
2021/04/22 13:20:01;;;;;;;5.75;2.80;;;;;;;;;;5115740;28;20035;-63
2021/04/22 13:22:27;;;;;;;4.60;2.35;;;;;;;;;;5115716;28;20469;-63
2021/04/22 13:24:52;;;;;;;8.60;3.10;;;;;;;;;;5114687;28;20022;-63
2021/04/22 13:27:23;;;;;;;3.17;2.10;;;;;;;;;;5115760;28;20429;-63
2021/04/22 13:29:53;;;;;;;3.65;2.50;;;;;;;;;;5115575;28;20027;-63
2021/04/22 13:32:22;;;;;;;4.05;2.38;;;;;;;;;;5115450;28;20076;-63
2021/04/22 13:34:49;;;;;;;3.55;1.83;;;;;;;;;;5097191;28;20142;-63
2021/04/22 13:37:15;;;;;;;3.50;1.80;;;;;;;;;;5115364;28;20035;-63
2021/04/22 13:39:42;;;;;;;7.35;3.05;;;;;;;;;;5115375;28;20011;-63
2021/04/22 13:49:13;;;;;;;3.38;1.77;;;;;;;;;;4859761;29;20136;-63
2021/04/22 13:51:39;;;;;;;4.95;2.53;;;;;;;;;;4844638;29;20082;-63
2021/04/22 13:54:06;;;;;;;2.97;1.60;;;;;;;;;;4859361;29;20037;-63
2021/04/22 13:56:31;;;;;;;3.58;2.42;;;;;;;;;;4859327;29;20052;-63
2021/04/22 13:58:57;;;;;;;5.78;2.70;;;;;;;;;;4859526;29;20465;-63
2021/04/22 14:01:23;;;;;;;3.33;2.40;;;;;;;;;;4858898;29;20128;-63
2021/04/22 14:03:52;;;;;;;4.55;2.42;;;;;;;;;;4859312;29;20092;-63
2021/04/22 14:06:18;;;;;;;7.03;2.70;;;;;;;;;;4859395;29;20082;-63
2021/04/22 14:08:43;;;;;;;3.90;2.65;;;;;;;;;;4859315;29;20033;-63
2021/04/22 14:14:35;;;;;;;3.28;2.20;;;;;;;;;;4821218;29;20439;-64
2021/04/22 14:17:01;;;;;;;5.97;2.65;;;;;;;;;;4823234;29;20050;-63
2021/04/22 14:19:27;;;;;;;1.17;1.08;;;;;;;;;;4823040;29;20052;-63
2021/04/22 14:21:54;;;;;;;4.07;2.00;;;;;;;;;;4849306;29;20040;-63
2021/04/22 14:24:19;;;;;;;2.25;2.05;;;;;;;;;;4918865;28;20158;-63
2021/04/22 14:26:48;;;;;;;3.13;2.08;;;;;;;;;;5017405;28;20045;-63
2021/04/22 14:29:14;;;;;;;2.13;1.55;;;;;;;;;;5051690;28;20052;-63
2021/04/22 14:31:41;;;;;;;3.08;2.33;;;;;;;;;;5051479;28;20049;-64
2021/04/22 14:34:07;;;;;;;0.95;0.85;;;;;;;;;;5052284;28;20363;-63
2021/04/22 14:36:32;;;;;;;2.88;1.60;;;;;;;;;;5035385;28;20033;-63
2021/04/22 14:38:58;;;;;;;2.75;1.70;;;;;;;;;;5051528;28;20021;-63
2021/04/22 14:41:23;;;;;;;4.10;2.00;;;;;;;;;;5051514;28;20041;-63
2021/04/22 14:43:49;;;;;;;3.58;1.80;;;;;;;;;;5051949;28;20036;-63
2021/04/22 14:46:15;;;;;;;1.63;1.50;;;;;;;;;;5034905;28;20068;-63
2021/04/22 14:48:40;;;;;;;4.15;1.98;;;;;;;;;;5035260;28;20025;-63
2021/04/22 14:51:06;;;;;;;5.15;2.20;;;;;;;;;;5068082;28;20516;-63
2021/04/22 14:53:31;;;;;;;4.45;1.90;;;;;;;;;;5114589;28;20012;-63